sensor_id;sensor_type;location;lat;lon;timestamp;P1;P2;P0
74440;PMS7003;62870;54.692;25.284;2022-10-16T00:03:51;18.2;17.2;11.2
74440;PMS7003;62870;54.692;25.284;2022-10-16T00:09:21;18;16.6;10.6
74440;PMS7003;62870;54.692;25.284;2022-10-16T00:14:15;19;17.4;11.4
74440;PMS7003;62870;54.692;25.284;2022-10-16T00:19:03;19;17.8;11.8
74440;PMS7003;62870;54.692;25.284;2022-10-16T00:24:13;18.6;17.2;11.4
74440;PMS7003;62870;54.692;25.284;2022-10-16T00:29:15;20.6;18.4;12.2
74440;PMS7003;62870;54.692;25.284;2022-10-16T00:34:25;19.8;17;12
74440;PMS7003;62870;54.692;25.284;2022-10-16T00:39:01;19;16.8;11.8
74440;PMS7003;62870;54.692;25.284;2022-10-16T00:43:40;20;17;11.8
74440;PMS7003;62870;54.692;25.284;2022-10-16T00:49:23;19.2;17.2;11.2
74440;PMS7003;62870;54.692;25.284;2022-10-16T00:54:14;22;19.6;12.6
74440;PMS7003;62870;54.692;25.284;2022-10-16T00:59:02;20.6;19.6;12.8
74440;PMS7003;62870;54.692;25.284;2022-10-16T01:04:13;18.6;17.6;12.4
74440;PMS7003;62870;54.692;25.284;2022-10-16T01:09:14;20.8;18;12.8
74440;PMS7003;62870;54.692;25.284;2022-10-16T01:13:40;20.2;18.2;11.8
74440;PMS7003;62870;54.692;25.284;2022-10-16T01:19:14;21.5;20;13
74440;PMS7003;62870;54.692;25.284;2022-10-16T01:24:27;21.2;19.6;12.8
74440;PMS7003;62870;54.692;25.284;2022-10-16T01:28:41;20.4;18;12
74440;PMS7003;62870;54.692;25.284;2022-10-16T01:34:00;21.8;19.2;12.8
74440;PMS7003;62870;54.692;25.284;2022-10-16T01:39:24;20.8;19.8;13
74440;PMS7003;62870;54.692;25.284;2022-10-16T01:44:26;21.6;19.8;13.4
74440;PMS7003;62870;54.692;25.284;2022-10-16T01:49:26;23.6;20.4;13.2
74440;PMS7003;62870;54.692;25.284;2022-10-16T01:53:39;27;21.4;12.8
74440;PMS7003;62870;54.692;25.284;2022-10-16T01:59:24;19.2;18;11.8
74440;PMS7003;62870;54.692;25.284;2022-10-16T02:04:26;22.2;19.8;12.8
74440;PMS7003;62870;54.692;25.284;2022-10-16T02:08:59;19.4;18.2;12.6
74440;PMS7003;62870;54.692;25.284;2022-10-16T02:13:41;24;20.8;13.6
74440;PMS7003;62870;54.692;25.284;2022-10-16T02:19:01;22.8;19.8;13
74440;PMS7003;62870;54.692;25.284;2022-10-16T02:23:54;20.8;19;12.8
74440;PMS7003;62870;54.692;25.284;2022-10-16T02:29:02;21.2;19.4;13
74440;PMS7003;62870;54.692;25.284;2022-10-16T02:34:02;22;18.8;12.2
74440;PMS7003;62870;54.692;25.284;2022-10-16T02:39:23;24.4;21;14
74440;PMS7003;62870;54.692;25.284;2022-10-16T02:44:13;22.4;20.6;13.8
74440;PMS7003;62870;54.692;25.284;2022-10-16T02:49:27;21.6;19;13
74440;PMS7003;62870;54.692;25.284;2022-10-16T02:54:15;20.8;19.4;14
74440;PMS7003;62870;54.692;25.284;2022-10-16T02:59:15;21.8;19.6;13.6
74440;PMS7003;62870;54.692;25.284;2022-10-16T03:04:29;21;17.6;11.4
74440;PMS7003;62870;54.692;25.284;2022-10-16T03:08:41;21.2;19.6;12.4
74440;PMS7003;62870;54.692;25.284;2022-10-16T03:13:41;22.8;19.8;13.2
74440;PMS7003;62870;54.692;25.284;2022-10-16T03:18:49;24;20.8;13.5
74440;PMS7003;62870;54.692;25.284;2022-10-16T03:24:27;20.2;18.2;11.4
74440;PMS7003;62870;54.692;25.284;2022-10-16T03:29:17;25.2;22;14.4
74440;PMS7003;62870;54.692;25.284;2022-10-16T03:34:17;26;22.6;14
74440;PMS7003;62870;54.692;25.284;2022-10-16T03:39:15;19.8;18.6;12.2
74440;PMS7003;62870;54.692;25.284;2022-10-16T03:44:17;23;21.2;14
74440;PMS7003;62870;54.692;25.284;2022-10-16T03:49:05;21.6;18.6;12.4
74440;PMS7003;62870;54.692;25.284;2022-10-16T03:54:17;21.4;19.6;12.8
74440;PMS7003;62870;54.692;25.284;2022-10-16T03:58:51;24.2;21.8;14.8
74440;PMS7003;62870;54.692;25.284;2022-10-16T04:04:05;24.6;21.4;13.6
74440;PMS7003;62870;54.692;25.284;2022-10-16T04:09:03;24.8;21.6;12.6
74440;PMS7003;62870;54.692;25.284;2022-10-16T04:14:27;21.2;19.2;12.6
74440;PMS7003;62870;54.692;25.284;2022-10-16T04:19:17;23.3;21;13.5
74440;PMS7003;62870;54.692;25.284;2022-10-16T04:24:07;22.6;20.6;14
74440;PMS7003;62870;54.692;25.284;2022-10-16T04:29:07;25.6;22.6;15
74440;PMS7003;62870;54.692;25.284;2022-10-16T04:34:19;21.2;19;12.4
74440;PMS7003;62870;54.692;25.284;2022-10-16T04:39:31;23.2;21.2;14.4
74440;PMS7003;62870;54.692;25.284;2022-10-16T04:44:05;24.6;22;14
74440;PMS7003;62870;54.692;25.284;2022-10-16T04:48:41;28;24.8;16
74440;PMS7003;62870;54.692;25.284;2022-10-16T04:53:55;26.4;22.4;15.2
74440;PMS7003;62870;54.692;25.284;2022-10-16T04:59:19;27.4;24.4;14.8
74440;PMS7003;62870;54.692;25.284;2022-10-16T05:03:51;26;23.6;14.4
74440;PMS7003;62870;54.692;25.284;2022-10-16T05:08:41;26.4;23;16.4
74440;PMS7003;62870;54.692;25.284;2022-10-16T05:14:19;25.8;24.2;15.6
74440;PMS7003;62870;54.692;25.284;2022-10-16T05:19:31;24.2;21.2;13.6
74440;PMS7003;62870;54.692;25.284;2022-10-16T05:24:07;26.8;23.5;14.5
74440;PMS7003;62870;54.692;25.284;2022-10-16T05:29:29;26.4;22;13.6
74440;PMS7003;62870;54.692;25.284;2022-10-16T05:34:31;23;21.2;15.4
74440;PMS7003;62870;54.692;25.284;2022-10-16T05:38:41;26;24.2;16.6
74440;PMS7003;62870;54.692;25.284;2022-10-16T05:43:41;24;22.2;16.2
74440;PMS7003;62870;54.692;25.284;2022-10-16T05:48:41;23.4;20.2;13.8
74440;PMS7003;62870;54.692;25.284;2022-10-16T05:54:29;25.2;21.6;14.4
74440;PMS7003;62870;54.692;25.284;2022-10-16T05:59:19;26.8;21.6;12.6
74440;PMS7003;62870;54.692;25.284;2022-10-16T06:04:19;27.4;24.2;16
74440;PMS7003;62870;54.692;25.284;2022-10-16T06:09:15;26.8;23.4;15
74440;PMS7003;62870;54.692;25.284;2022-10-16T06:14:19;21.8;20;13.6
74440;PMS7003;62870;54.692;25.284;2022-10-16T06:19:19;23.6;22.4;14.8
74440;PMS7003;62870;54.692;25.284;2022-10-16T06:24:17;26.8;24.3;14.8
74440;PMS7003;62870;54.692;25.284;2022-10-16T06:28:53;26.4;25;15.4
74440;PMS7003;62870;54.692;25.284;2022-10-16T06:33:41;25;22.2;14.6
74440;PMS7003;62870;54.692;25.284;2022-10-16T06:38:51;25.4;24.4;14.4
74440;PMS7003;62870;54.692;25.284;2022-10-16T06:44:29;25.4;22.6;15.4
74440;PMS7003;62870;54.692;25.284;2022-10-16T06:49:17;24.2;22.2;15.6
74440;PMS7003;62870;54.692;25.284;2022-10-16T06:54:03;20.8;18.2;12.2
74440;PMS7003;62870;54.692;25.284;2022-10-16T06:58:52;26;20.6;13.6
74440;PMS7003;62870;54.692;25.284;2022-10-16T07:04:09;24.6;21.6;14.2
74440;PMS7003;62870;54.692;25.284;2022-10-16T07:09:31;26.2;22.8;13.8
74440;PMS7003;62870;54.692;25.284;2022-10-16T07:13:55;27;24.2;15.6
74440;PMS7003;62870;54.692;25.284;2022-10-16T07:19:07;25.6;23.8;15.8
74440;PMS7003;62870;54.692;25.284;2022-10-16T07:23:56;23.8;21;13.5
74440;PMS7003;62870;54.692;25.284;2022-10-16T07:28:55;24;21.2;13.2
74440;PMS7003;62870;54.692;25.284;2022-10-16T07:34:06;20.6;19.8;12.6
74440;PMS7003;62870;54.692;25.284;2022-10-16T07:39:05;27.6;24.8;16.4
74440;PMS7003;62870;54.692;25.284;2022-10-16T07:44:29;25.2;23.4;15.8
74440;PMS7003;62870;54.692;25.284;2022-10-16T07:49:17;24;21;13.5
74440;PMS7003;62870;54.692;25.284;2022-10-16T07:54:08;21.6;20.2;13.4
74440;PMS7003;62870;54.692;25.284;2022-10-16T07:59:29;23.2;20.2;12.8
74440;PMS7003;62870;54.692;25.284;2022-10-16T08:04:19;22.4;19.4;12.8
74440;PMS7003;62870;54.692;25.284;2022-10-16T08:09:29;26.8;23.6;15
74440;PMS7003;62870;54.692;25.284;2022-10-16T08:14:08;26.4;23.6;15
74440;PMS7003;62870;54.692;25.284;2022-10-16T08:18:41;26.6;24.6;16.2
74440;PMS7003;62870;54.692;25.284;2022-10-16T08:24:31;25;21.6;14.8
74440;PMS7003;62870;54.692;25.284;2022-10-16T08:29:33;27;23.4;14.2
74440;PMS7003;62870;54.692;25.284;2022-10-16T08:33:42;26.2;23.6;15
74440;PMS7003;62870;54.692;25.284;2022-10-16T08:39:17;24.4;21.2;14.2
74440;PMS7003;62870;54.692;25.284;2022-10-16T08:44:36;21.3;19.3;12.8
74440;PMS7003;62870;54.692;25.284;2022-10-16T08:49:17;23.4;22;14
74440;PMS7003;62870;54.692;25.284;2022-10-16T08:54:27;23.2;21.4;14.2
74440;PMS7003;62870;54.692;25.284;2022-10-16T08:59:31;23.6;21.6;13.2
74440;PMS7003;62870;54.692;25.284;2022-10-16T09:04:15;24;21;12.2
74440;PMS7003;62870;54.692;25.284;2022-10-16T09:08:44;20;17.6;11.4
74440;PMS7003;62870;54.692;25.284;2022-10-16T09:14:35;20.8;18.8;12.2
74440;PMS7003;62870;54.692;25.284;2022-10-16T09:19:33;20.4;18.4;11.8
74440;PMS7003;62870;54.692;25.284;2022-10-16T09:24:31;20.2;19.2;13
74440;PMS7003;62870;54.692;25.284;2022-10-16T09:28:51;18.8;17.6;12.2
74440;PMS7003;62870;54.692;25.284;2022-10-16T09:34:32;19;17;12.4
74440;PMS7003;62870;54.692;25.284;2022-10-16T09:39:43;20;17.4;11.8
74440;PMS7003;62870;54.692;25.284;2022-10-16T09:44:06;19.8;19;11.5
74440;PMS7003;62870;54.692;25.284;2022-10-16T09:49:18;21.2;18.6;13.4
74440;PMS7003;62870;54.692;25.284;2022-10-16T09:53:42;22.4;20.6;13.6
74440;PMS7003;62870;54.692;25.284;2022-10-16T09:58:42;24.2;22;14.4
74440;PMS7003;62870;54.692;25.284;2022-10-16T10:04:20;22.2;18.2;12.4
74440;PMS7003;62870;54.692;25.284;2022-10-16T10:09:15;19.2;17.6;12.4
74440;PMS7003;62870;54.692;25.284;2022-10-16T10:14:35;23.4;20;13.2
74440;PMS7003;62870;54.692;25.284;2022-10-16T10:19:20;22.6;19.2;13.2
74440;PMS7003;62870;54.692;25.284;2022-10-16T10:23:55;22.8;20.4;14.4
74440;PMS7003;62870;54.692;25.284;2022-10-16T10:29:38;21;17.8;11.4
74440;PMS7003;62870;54.692;25.284;2022-10-16T10:34:23;21.8;21;13.6
74440;PMS7003;62870;54.692;25.284;2022-10-16T10:39:32;21;18.4;10.8
74440;PMS7003;62870;54.692;25.284;2022-10-16T10:44:11;20.5;19.3;12.5
74440;PMS7003;62870;54.692;25.284;2022-10-16T10:49:03;21.2;18.4;12.2
74440;PMS7003;62870;54.692;25.284;2022-10-16T10:54:35;21.8;19.8;13.8
74440;PMS7003;62870;54.692;25.284;2022-10-16T10:59:26;20;18.8;12.2
74440;PMS7003;62870;54.692;25.284;2022-10-16T11:03:59;24.2;20.6;13.8
74440;PMS7003;62870;54.692;25.284;2022-10-16T11:09:10;21.6;19.8;13.2
74440;PMS7003;62870;54.692;25.284;2022-10-16T11:14:18;24.8;21.6;14.2
74440;PMS7003;62870;54.692;25.284;2022-10-16T11:18:55;20.2;17.2;13
74440;PMS7003;62870;54.692;25.284;2022-10-16T11:24:35;22.4;20.6;14.4
74440;PMS7003;62870;54.692;25.284;2022-10-16T11:29:34;19.8;18.8;12.4
74440;PMS7003;62870;54.692;25.284;2022-10-16T11:33:42;25.6;22.4;14.8
74440;PMS7003;62870;54.692;25.284;2022-10-16T11:38:43;20.8;18.6;13
74440;PMS7003;62870;54.692;25.284;2022-10-16T11:44:33;24;21.5;14.3
74440;PMS7003;62870;54.692;25.284;2022-10-16T11:49:32;22;18.2;11.8
74440;PMS7003;62870;54.692;25.284;2022-10-16T11:54:35;18.6;17.2;10.6
74440;PMS7003;62870;54.692;25.284;2022-10-16T11:59:08;20.2;19.4;12.8
74440;PMS7003;62870;54.692;25.284;2022-10-16T12:03:42;19;17;11.8
74440;PMS7003;62870;54.692;25.284;2022-10-16T12:09:20;19.8;19.4;12.8
74440;PMS7003;62870;54.692;25.284;2022-10-16T12:14:37;23;20.6;13.2
74440;PMS7003;62870;54.692;25.284;2022-10-16T12:19:11;20.6;18.8;13.8
74440;PMS7003;62870;54.692;25.284;2022-10-16T12:23:46;21.8;20.2;14
74440;PMS7003;62870;54.692;25.284;2022-10-16T12:28:42;16.8;14.8;9.8
74440;PMS7003;62870;54.692;25.284;2022-10-16T12:33:57;17.6;16.2;11.2
74440;PMS7003;62870;54.692;25.284;2022-10-16T12:39:16;19.4;18;12.2
74440;PMS7003;62870;54.692;25.284;2022-10-16T12:44:20;17.6;16;11
74440;PMS7003;62870;54.692;25.284;2022-10-16T12:49:21;18.8;16;10.8
74440;PMS7003;62870;54.692;25.284;2022-10-16T12:54:35;19.8;18.8;12.4
74440;PMS7003;62870;54.692;25.284;2022-10-16T12:59:18;19.8;17.2;11.6
74440;PMS7003;62870;54.692;25.284;2022-10-16T13:04:36;23;20;13.4
74440;PMS7003;62870;54.692;25.284;2022-10-16T13:09:39;19.2;18;11.8
74440;PMS7003;62870;54.692;25.284;2022-10-16T13:14:01;18.4;17.8;12.2
74440;PMS7003;62870;54.692;25.284;2022-10-16T13:18:58;18.8;17.2;11.6
74440;PMS7003;62870;54.692;25.284;2022-10-16T13:23:43;20.6;18.6;12.8
74440;PMS7003;62870;54.692;25.284;2022-10-16T13:29:32;21;18;13
74440;PMS7003;62870;54.692;25.284;2022-10-16T13:34:00;25.2;22.4;14.4
74440;PMS7003;62870;54.692;25.284;2022-10-16T13:39:22;21.8;20.2;14.2
74440;PMS7003;62870;54.692;25.284;2022-10-16T13:43:44;22.8;21.4;14.4
74440;PMS7003;62870;54.692;25.284;2022-10-16T13:49:22;18.3;17.8;12.8
74440;PMS7003;62870;54.692;25.284;2022-10-16T13:54:10;24.4;21.6;14.8
74440;PMS7003;62870;54.692;25.284;2022-10-16T13:59:23;23.4;21;14
74440;PMS7003;62870;54.692;25.284;2022-10-16T14:03:59;22.8;20.2;14.8
74440;PMS7003;62870;54.692;25.284;2022-10-16T14:08:56;18.2;17.6;12.2
74440;PMS7003;62870;54.692;25.284;2022-10-16T14:13:58;21.8;20;14
74440;PMS7003;62870;54.692;25.284;2022-10-16T14:19:34;23.2;22.4;15.2
74440;PMS7003;62870;54.692;25.284;2022-10-16T14:24:10;21.8;19.6;13
74440;PMS7003;62870;54.692;25.284;2022-10-16T14:29:08;19.2;17.8;11.8
74440;PMS7003;62870;54.692;25.284;2022-10-16T14:33:58;20.8;19.6;14.4
74440;PMS7003;62870;54.692;25.284;2022-10-16T14:39:23;22.2;19.4;13.2
74440;PMS7003;62870;54.692;25.284;2022-10-16T14:44:34;21.4;19.4;13.6
74440;PMS7003;62870;54.692;25.284;2022-10-16T14:49:13;19.8;17;11.8
74440;PMS7003;62870;54.692;25.284;2022-10-16T14:53:52;19;17.8;11.4
74440;PMS7003;62870;54.692;25.284;2022-10-16T14:58:56;22;20;13.8
74440;PMS7003;62870;54.692;25.284;2022-10-16T15:03:42;20.2;18.2;12.8
74440;PMS7003;62870;54.692;25.284;2022-10-16T15:09:08;20.4;18.4;13
74440;PMS7003;62870;54.692;25.284;2022-10-16T15:14:08;23.8;22.4;15.4
74440;PMS7003;62870;54.692;25.284;2022-10-16T15:19:22;20.2;18.6;13.4
74440;PMS7003;62870;54.692;25.284;2022-10-16T15:24:36;20.2;18.4;12
74440;PMS7003;62870;54.692;25.284;2022-10-16T15:28:42;20.4;18.2;12
74440;PMS7003;62870;54.692;25.284;2022-10-16T15:34:32;19.4;17.2;12.8
74440;PMS7003;62870;54.692;25.284;2022-10-16T15:39:34;22.6;20;14.4
74440;PMS7003;62870;54.692;25.284;2022-10-16T15:44:08;18.4;16.2;11.8
74440;PMS7003;62870;54.692;25.284;2022-10-16T15:48:42;17.8;16.5;11
74440;PMS7003;62870;54.692;25.284;2022-10-16T15:53:42;18.8;18;12.4
74440;PMS7003;62870;54.692;25.284;2022-10-16T15:59:20;22.8;20.4;13.8
74440;PMS7003;62870;54.692;25.284;2022-10-16T16:04:22;21.6;19.6;13.6
74440;PMS7003;62870;54.692;25.284;2022-10-16T16:09:22;22;18.6;13.4
74440;PMS7003;62870;54.692;25.284;2022-10-16T16:14:20;19.8;18.4;13.2
74440;PMS7003;62870;54.692;25.284;2022-10-16T16:19:20;19.6;18.2;12
74440;PMS7003;62870;54.692;25.284;2022-10-16T16:23:42;16.2;15.4;9.2
74440;PMS7003;62870;54.692;25.284;2022-10-16T16:29:18;19;17;12.6
74440;PMS7003;62870;54.692;25.284;2022-10-16T16:33:42;20;17.6;12
74440;PMS7003;62870;54.692;25.284;2022-10-16T16:38:58;17.4;17.2;13
74440;PMS7003;62870;54.692;25.284;2022-10-16T16:44:00;19.4;18;11.8
74440;PMS7003;62870;54.692;25.284;2022-10-16T16:49:34;21.5;18;12.3
74440;PMS7003;62870;54.692;25.284;2022-10-16T16:54:33;18;15.6;10.8
74440;PMS7003;62870;54.692;25.284;2022-10-16T16:59:32;20.2;18.2;11.6
74440;PMS7003;62870;54.692;25.284;2022-10-16T17:04:06;20.4;18.6;12.4
74440;PMS7003;62870;54.692;25.284;2022-10-16T17:09:31;18.4;16.6;11.2
74440;PMS7003;62870;54.692;25.284;2022-10-16T17:14:34;22.2;19;12.6
74440;PMS7003;62870;54.692;25.284;2022-10-16T17:19:05;16;15.6;11.4
74440;PMS7003;62870;54.692;25.284;2022-10-16T17:24:04;21;19.4;13
74440;PMS7003;62870;54.692;25.284;2022-10-16T17:28:42;23.8;21.6;14
74440;PMS7003;62870;54.692;25.284;2022-10-16T17:33:52;19.6;16.4;11
74440;PMS7003;62870;54.692;25.284;2022-10-16T17:39:09;21.8;18.6;13.2
74440;PMS7003;62870;54.692;25.284;2022-10-16T17:43:52;15.6;13.6;9
74440;PMS7003;62870;54.692;25.284;2022-10-16T17:49:30;23.6;22.2;14.8
74440;PMS7003;62870;54.692;25.284;2022-10-16T17:54:20;20.3;18.3;13.8
74440;PMS7003;62870;54.692;25.284;2022-10-16T17:59:08;23.6;21.2;14.4
74440;PMS7003;62870;54.692;25.284;2022-10-16T18:04:32;21.8;20.4;14
74440;PMS7003;62870;54.692;25.284;2022-10-16T18:09:16;23.8;22.4;14.4
74440;PMS7003;62870;54.692;25.284;2022-10-16T18:14:30;24.4;22;14.6
74440;PMS7003;62870;54.692;25.284;2022-10-16T18:18:42;24.2;22.8;14.6
74440;PMS7003;62870;54.692;25.284;2022-10-16T18:24:08;20.4;19.4;12.4
74440;PMS7003;62870;54.692;25.284;2022-10-16T18:29:30;25.8;23.6;14.8
74440;PMS7003;62870;54.692;25.284;2022-10-16T18:34:20;24;22.6;14.8
74440;PMS7003;62870;54.692;25.284;2022-10-16T18:38:54;25.2;23.2;15.8
74440;PMS7003;62870;54.692;25.284;2022-10-16T18:44:10;26.2;23.2;15.6
74440;PMS7003;62870;54.692;25.284;2022-10-16T18:49:18;25.8;23.6;15.2
74440;PMS7003;62870;54.692;25.284;2022-10-16T18:53:51;20.5;18.8;11.8
74440;PMS7003;62870;54.692;25.284;2022-10-16T18:59:20;24.4;21.6;14.8
74440;PMS7003;62870;54.692;25.284;2022-10-16T19:04:32;21.6;20.4;13.8
74440;PMS7003;62870;54.692;25.284;2022-10-16T19:08:42;23.2;21.6;14.4
74440;PMS7003;62870;54.692;25.284;2022-10-16T19:13:56;22.6;20;12.8
74440;PMS7003;62870;54.692;25.284;2022-10-16T19:19:30;22;20;14.2
74440;PMS7003;62870;54.692;25.284;2022-10-16T19:24:30;23.2;20.6;14.4
74440;PMS7003;62870;54.692;25.284;2022-10-16T19:29:32;23.4;21.2;13.4
74440;PMS7003;62870;54.692;25.284;2022-10-16T19:34:09;23.6;21.4;14.4
74440;PMS7003;62870;54.692;25.284;2022-10-16T19:39:28;20.8;18.6;12.8
74440;PMS7003;62870;54.692;25.284;2022-10-16T19:44:14;23;20.6;14.2
74440;PMS7003;62870;54.692;25.284;2022-10-16T19:49:04;25.4;22.6;15
74440;PMS7003;62870;54.692;25.284;2022-10-16T19:54:07;22.3;21.3;14.5
74440;PMS7003;62870;54.692;25.284;2022-10-16T19:58:52;24.6;21.6;13.4
74440;PMS7003;62870;54.692;25.284;2022-10-16T20:03:42;22.8;21.2;14.2
74440;PMS7003;62870;54.692;25.284;2022-10-16T20:09:06;21.4;19.8;13.4
74440;PMS7003;62870;54.692;25.284;2022-10-16T20:14:08;21.8;21;14.4
74440;PMS7003;62870;54.692;25.284;2022-10-16T20:19:30;23.6;20.4;13.8
74440;PMS7003;62870;54.692;25.284;2022-10-16T20:24:16;23.2;21.2;14.4
74440;PMS7003;62870;54.692;25.284;2022-10-16T20:29:06;24.2;22;14.6
74440;PMS7003;62870;54.692;25.284;2022-10-16T20:34:32;21.6;18.8;13.6
74440;PMS7003;62870;54.692;25.284;2022-10-16T20:39:20;22.2;20.8;13.6
74440;PMS7003;62870;54.692;25.284;2022-10-16T20:44:32;21.2;20.6;13.4
74440;PMS7003;62870;54.692;25.284;2022-10-16T20:48:42;20.8;19.4;13.4
74440;PMS7003;62870;54.692;25.284;2022-10-16T20:53:58;21.8;19.3;12.3
74440;PMS7003;62870;54.692;25.284;2022-10-16T20:59:32;22;20;13.8
74440;PMS7003;62870;54.692;25.284;2022-10-16T21:04:20;21.4;20.8;13.2
74440;PMS7003;62870;54.692;25.284;2022-10-16T21:09:08;21.8;20.4;14
74440;PMS7003;62870;54.692;25.284;2022-10-16T21:14:22;24.4;22.4;14.6
74440;PMS7003;62870;54.692;25.284;2022-10-16T21:19:22;23.2;20.4;14.4
74440;PMS7003;62870;54.692;25.284;2022-10-16T21:24:18;22.4;21;14.6
74440;PMS7003;62870;54.692;25.284;2022-10-16T21:29:06;24.4;21.4;14.8
74440;PMS7003;62870;54.692;25.284;2022-10-16T21:34:18;24.6;22.8;15.2
74440;PMS7003;62870;54.692;25.284;2022-10-16T21:38:42;20.8;18.8;13.4
74440;PMS7003;62870;54.692;25.284;2022-10-16T21:43:56;25.6;22.2;15.6
74440;PMS7003;62870;54.692;25.284;2022-10-16T21:48:42;24.6;22.8;14.6
74440;PMS7003;62870;54.692;25.284;2022-10-16T21:54:32;22.5;21;14.5
74440;PMS7003;62870;54.692;25.284;2022-10-16T21:58:44;21.4;20.4;13.8
74440;PMS7003;62870;54.692;25.284;2022-10-16T22:04:20;22.6;21.4;15
74440;PMS7003;62870;54.692;25.284;2022-10-16T22:09:06;21.2;19.8;13.6
74440;PMS7003;62870;54.692;25.284;2022-10-16T22:13:54;22.2;20.8;12.4
74440;PMS7003;62870;54.692;25.284;2022-10-16T22:19:34;25.8;24.4;16.4
74440;PMS7003;62870;54.692;25.284;2022-10-16T22:24:20;22;21.2;14.6
74440;PMS7003;62870;54.692;25.284;2022-10-16T22:29:08;24.8;23.6;14.8
74440;PMS7003;62870;54.692;25.284;2022-10-16T22:33:56;26.8;24.6;15.4
74440;PMS7003;62870;54.692;25.284;2022-10-16T22:39:02;27;24.8;16.4
74440;PMS7003;62870;54.692;25.284;2022-10-16T22:44:09;26.6;22;14.6
74440;PMS7003;62870;54.692;25.284;2022-10-16T22:49:06;27.6;24.6;16
74440;PMS7003;62870;54.692;25.284;2022-10-16T22:54:18;29.2;25.8;16.4
74440;PMS7003;62870;54.692;25.284;2022-10-16T22:59:30;28;25.3;16
74440;PMS7003;62870;54.692;25.284;2022-10-16T23:03:40;26.6;23.2;15.6
74440;PMS7003;62870;54.692;25.284;2022-10-16T23:09:30;26;23.4;15.4
74440;PMS7003;62870;54.692;25.284;2022-10-16T23:14:30;27.8;26.4;16.2
74440;PMS7003;62870;54.692;25.284;2022-10-16T23:19:16;27.2;24.8;16.4
74440;PMS7003;62870;54.692;25.284;2022-10-16T23:23:48;25.2;23.4;15.2
74440;PMS7003;62870;54.692;25.284;2022-10-16T23:28:38;26.4;23.8;16.2
74440;PMS7003;62870;54.692;25.284;2022-10-16T23:34:22;34.8;29;19.6
74440;PMS7003;62870;54.692;25.284;2022-10-16T23:39:16;31;28;19.2
74440;PMS7003;62870;54.692;25.284;2022-10-16T23:44:14;35.4;31.6;21.6
74440;PMS7003;62870;54.692;25.284;2022-10-16T23:49:16;34.2;30.8;20.2
74440;PMS7003;62870;54.692;25.284;2022-10-16T23:54:14;31.2;28.4;19.2
74440;PMS7003;62870;54.692;25.284;2022-10-16T23:58:50;34.3;31;19.8
